createdAt,value
2018-12-01T00:02:17.444Z,101115.06
2018-12-01T00:04:45.674Z,101107.27
2018-12-01T00:07:13.898Z,101099.45
2018-12-01T00:09:42.612Z,101101.42
2018-12-01T00:12:10.932Z,101096.36
2018-12-01T00:14:39.351Z,101093.47
2018-12-01T00:17:07.772Z,101100.02
2018-12-01T00:19:36.136Z,101099.31
2018-12-01T00:22:04.457Z,101095.69
2018-12-01T00:24:32.570Z,101097.51
2018-12-01T00:27:00.796Z,101090.91
2018-12-01T00:29:29.152Z,101086.88
2018-12-01T00:31:58.042Z,101087.78
2018-12-01T00:34:26.158Z,101086.72
2018-12-01T00:36:54.319Z,101089.83
2018-12-01T00:39:22.625Z,101087.66
2018-12-01T00:41:50.745Z,101081.42
2018-12-01T00:44:19.042Z,101083.44
2018-12-01T00:46:47.360Z,101079.72
2018-12-01T00:49:15.613Z,101078.71
2018-12-01T00:51:44.367Z,101091.92
2018-12-01T00:54:12.574Z,101088.00
2018-12-01T00:56:40.755Z,101082.67
2018-12-01T00:59:09.074Z,101077.71
2018-12-01T01:01:37.194Z,101078.11
2018-12-01T01:04:05.554Z,101077.16
2018-12-01T01:06:33.684Z,101075.88
2018-12-01T01:09:02.057Z,101079.45
2018-12-01T01:11:30.388Z,101089.02
2018-12-01T01:13:58.609Z,101083.89
2018-12-01T01:16:26.784Z,101086.87
2018-12-01T01:18:54.955Z,101080.10
2018-12-01T01:21:23.063Z,101074.64
2018-12-01T01:23:51.278Z,101078.19
2018-12-01T01:26:19.550Z,101088.44
2018-12-01T01:28:47.685Z,101094.41
2018-12-01T01:31:15.935Z,101092.34
2018-12-01T01:33:44.173Z,101094.70
2018-12-01T01:36:12.400Z,101089.90
2018-12-01T01:38:40.503Z,101087.34
2018-12-01T01:41:08.931Z,101078.66
2018-12-01T01:43:37.534Z,101088.44
2018-12-01T01:46:05.991Z,101090.78
2018-12-01T01:48:34.120Z,101095.14
2018-12-01T01:51:02.351Z,101094.08
2018-12-01T01:53:30.652Z,101094.97
2018-12-01T01:55:59.008Z,101090.02
2018-12-01T01:58:27.257Z,101087.16
2018-12-01T02:00:55.444Z,101087.21
2018-12-01T02:03:23.594Z,101078.11
2018-12-01T02:05:58.356Z,101079.66
2018-12-01T02:08:26.698Z,101086.12
2018-12-01T02:10:55.023Z,101073.53
2018-12-01T02:13:23.302Z,101068.13
2018-12-01T02:15:51.508Z,101067.46
2018-12-01T02:18:19.656Z,101061.13
2018-12-01T02:20:47.853Z,101063.20
2018-12-01T02:23:16.016Z,101068.92
2018-12-01T02:25:44.216Z,101061.39
2018-12-01T02:28:12.360Z,101053.09
2018-12-01T02:30:40.582Z,101057.61
2018-12-01T02:33:08.771Z,101061.39
2018-12-01T02:35:36.934Z,101060.78
2018-12-01T02:38:05.102Z,101061.54
2018-12-01T02:40:33.427Z,101061.88
2018-12-01T02:43:01.718Z,101065.36
2018-12-01T02:45:41.509Z,101058.43
2018-12-01T02:48:09.894Z,101059.71
2018-12-01T02:50:38.228Z,101063.13
2018-12-01T02:53:06.732Z,101075.20
2018-12-01T02:55:35.077Z,101074.59
2018-12-01T02:58:03.229Z,101079.25
2018-12-01T03:00:31.369Z,101075.88
2018-12-01T03:02:59.749Z,101080.61
2018-12-01T03:05:27.963Z,101077.64
2018-12-01T03:07:56.146Z,101076.30
2018-12-01T03:10:24.342Z,101072.77
2018-12-01T03:12:53.608Z,101072.77
2018-12-01T03:15:21.903Z,101079.66
2018-12-01T03:17:51.056Z,101076.27
2018-12-01T03:20:19.406Z,101085.67
2018-12-01T03:22:47.558Z,101072.77
2018-12-01T03:25:21.314Z,101076.61
2018-12-01T03:27:50.408Z,101078.11
2018-12-01T03:30:19.638Z,101078.23
2018-12-01T03:32:48.402Z,101077.31
2018-12-01T03:35:16.834Z,101072.64
2018-12-01T03:37:47.181Z,101071.43
2018-12-01T03:40:15.886Z,101072.64
2018-12-01T03:42:44.122Z,101080.40
2018-12-01T03:45:13.556Z,101082.29
2018-12-01T03:47:41.781Z,101079.27
2018-12-01T03:50:11.238Z,101081.41
2018-12-01T03:52:39.399Z,101087.02
2018-12-01T03:55:19.109Z,101086.28
2018-12-01T03:57:47.328Z,101086.26
2018-12-01T04:00:15.495Z,101078.27
2018-12-01T04:02:43.613Z,101075.00
2018-12-01T04:05:11.769Z,101076.09
2018-12-01T04:07:39.939Z,101069.48
2018-12-01T04:10:08.083Z,101081.63
2018-12-01T04:12:36.277Z,101080.00
2018-12-01T04:15:04.443Z,101080.55
2018-12-01T04:17:32.597Z,101079.20
2018-12-01T04:20:00.693Z,101081.13
2018-12-01T04:22:28.924Z,101069.94
2018-12-01T04:24:57.183Z,101080.20
2018-12-01T04:27:25.405Z,101090.92
2018-12-01T04:29:53.587Z,101087.02
2018-12-01T04:32:21.747Z,101086.80
2018-12-01T04:34:49.978Z,101081.56
2018-12-01T04:37:18.140Z,101080.80
2018-12-01T04:39:46.303Z,101077.37
2018-12-01T04:42:14.467Z,101078.23
2018-12-01T04:44:42.660Z,101076.77
2018-12-01T04:47:10.813Z,101080.80
2018-12-01T04:49:38.994Z,101083.12
2018-12-01T04:52:07.142Z,101087.14
2018-12-01T04:54:35.271Z,101081.63
2018-12-01T04:57:03.507Z,101082.69
2018-12-01T04:59:31.673Z,101079.58
2018-12-01T05:01:59.837Z,101081.75
2018-12-01T05:04:27.985Z,101091.72
2018-12-01T05:06:56.145Z,101093.77
2018-12-01T05:09:24.350Z,101089.38
2018-12-01T05:11:52.513Z,101095.26
2018-12-01T05:14:20.688Z,101085.52
2018-12-01T05:16:48.916Z,101082.62
2018-12-01T05:19:17.037Z,101089.16
2018-12-01T05:21:45.217Z,101093.03
2018-12-01T05:24:13.433Z,101094.50
2018-12-01T05:26:41.621Z,101089.25
2018-12-01T05:29:09.858Z,101085.01
2018-12-01T05:31:37.973Z,101084.80
2018-12-01T05:34:06.119Z,101085.67
2018-12-01T05:36:34.283Z,101086.47
2018-12-01T05:39:02.545Z,101083.70
2018-12-01T05:41:30.807Z,101094.44
2018-12-01T05:43:58.939Z,101090.47
2018-12-01T05:46:27.098Z,101083.24
2018-12-01T05:48:55.293Z,101085.01
2018-12-01T05:51:23.423Z,101083.17
2018-12-01T05:53:51.713Z,101086.81
2018-12-01T05:56:20.056Z,101087.27
2018-12-01T05:58:48.355Z,101093.83
2018-12-01T06:01:16.701Z,101093.43
2018-12-01T06:03:44.897Z,101099.11
2018-12-01T06:06:13.075Z,101101.13
2018-12-01T06:08:41.371Z,101099.08
2018-12-01T06:11:09.657Z,101097.55
2018-12-01T06:13:37.841Z,101102.95
2018-12-01T06:16:06.416Z,101103.93
2018-12-01T06:18:34.575Z,101102.86
2018-12-01T06:21:02.857Z,101104.48
2018-12-01T06:23:31.084Z,101111.83
2018-12-01T06:25:59.303Z,101097.95
2018-12-01T06:28:27.459Z,101096.59
2018-12-01T06:30:55.821Z,101093.75
2018-12-01T06:33:24.133Z,101094.37
2018-12-01T06:35:52.287Z,101100.09
2018-12-01T06:38:20.462Z,101105.76
2018-12-01T06:40:48.605Z,101118.45
2018-12-01T06:43:16.787Z,101113.44
2018-12-01T06:45:45.037Z,101111.83
2018-12-01T06:48:13.247Z,101113.56
2018-12-01T06:50:41.421Z,101120.25
2018-12-01T06:53:09.583Z,101126.27
2018-12-01T06:55:37.727Z,101124.25
2018-12-01T06:58:05.999Z,101128.16
2018-12-01T07:00:34.230Z,101127.61
2018-12-01T07:03:02.459Z,101129.05
2018-12-01T07:05:30.695Z,101127.16
2018-12-01T07:07:58.898Z,101126.81
2018-12-01T07:10:27.042Z,101130.99
2018-12-01T07:12:56.925Z,101134.17
2018-12-01T07:15:26.536Z,101135.64
2018-12-01T07:17:54.653Z,101137.39
2018-12-01T07:20:22.807Z,101133.27
2018-12-01T07:22:50.950Z,101133.61
2018-12-01T07:25:19.111Z,101129.22
2018-12-01T07:27:47.345Z,101133.33
2018-12-01T07:30:15.672Z,101133.39
2018-12-01T07:32:44.629Z,101132.58
2018-12-01T07:35:12.837Z,101136.05
2018-12-01T07:37:41.207Z,101141.08
2018-12-01T07:40:14.852Z,101137.61
2018-12-01T07:42:42.988Z,101140.61
2018-12-01T07:45:12.408Z,101141.52
2018-12-01T07:47:40.595Z,101144.83
2018-12-01T07:50:10.420Z,101148.20
2018-12-01T07:52:38.602Z,101138.00
2018-12-01T07:55:07.189Z,101145.16
2018-12-01T07:57:35.377Z,101147.19
2018-12-01T08:00:03.791Z,101149.80
2018-12-01T08:02:31.926Z,101147.52
2018-12-01T08:05:00.079Z,101142.59
2018-12-01T08:07:28.289Z,101142.80
2018-12-01T08:09:56.487Z,101147.28
2018-12-01T08:12:24.662Z,101140.95
2018-12-01T08:14:52.830Z,101134.18
2018-12-01T08:17:20.939Z,101144.45
2018-12-01T08:19:49.058Z,101147.05
2018-12-01T08:22:17.204Z,101143.80
2018-12-01T08:24:45.330Z,101143.77
2018-12-01T08:27:13.532Z,101138.55
2018-12-01T08:29:41.664Z,101139.63
2018-12-01T08:32:09.858Z,101135.05
2018-12-01T08:34:37.969Z,101139.81
2018-12-01T08:37:06.649Z,101141.45
2018-12-01T08:39:34.904Z,101138.79
2018-12-01T08:42:03.068Z,101136.70
2018-12-01T08:44:31.207Z,101136.53
2018-12-01T08:46:59.378Z,101145.13
2018-12-01T08:49:27.544Z,101139.33
2018-12-01T08:51:55.721Z,101141.80
2018-12-01T08:54:23.881Z,101133.70
2018-12-01T08:56:52.041Z,101136.66
2018-12-01T08:59:20.212Z,101142.31
2018-12-01T09:01:48.380Z,101145.17
2018-12-01T09:04:16.582Z,101142.66
2018-12-01T09:06:44.788Z,101145.86
2018-12-01T09:09:12.995Z,101148.11
2018-12-01T09:11:41.302Z,101144.09
2018-12-01T09:14:09.480Z,101154.18
2018-12-01T09:16:37.690Z,101152.59
2018-12-01T09:19:06.311Z,101157.80
2018-12-01T09:21:34.570Z,101153.83
2018-12-01T09:24:02.682Z,101149.98
2018-12-01T09:26:30.886Z,101152.55
2018-12-01T09:28:59.061Z,101145.72
2018-12-01T09:31:27.330Z,101143.39
2018-12-01T09:33:55.840Z,101131.83
2018-12-01T09:36:24.044Z,101139.16
2018-12-01T09:38:52.224Z,101137.30
2018-12-01T09:41:20.609Z,101137.41
2018-12-01T09:43:48.778Z,101138.91
2018-12-01T09:46:16.902Z,101139.59
2018-12-01T09:48:45.026Z,101136.34
2018-12-01T09:51:13.267Z,101139.13
2018-12-01T09:53:41.541Z,101134.66
2018-12-01T09:56:09.694Z,101129.03
2018-12-01T09:58:37.884Z,101128.41
2018-12-01T10:01:06.040Z,101126.31
2018-12-01T10:03:34.190Z,101114.02
2018-12-01T10:06:02.427Z,101116.40
2018-12-01T10:08:30.558Z,101112.59
2018-12-01T10:10:58.749Z,101106.20
2018-12-01T10:13:26.926Z,101104.53
2018-12-01T10:15:55.140Z,101103.63
2018-12-01T10:18:23.294Z,101106.40
2018-12-01T10:20:51.411Z,101101.96
2018-12-01T10:23:19.643Z,101102.43
2018-12-01T10:25:47.921Z,101099.97
2018-12-01T10:28:16.090Z,101091.77
2018-12-01T10:30:44.259Z,101087.31
2018-12-01T10:33:12.370Z,101091.89
2018-12-01T10:35:40.549Z,101083.06
2018-12-01T10:38:13.458Z,101087.22
2018-12-01T10:40:41.635Z,101090.47
2018-12-01T10:43:09.877Z,101079.16
2018-12-01T10:45:38.138Z,101081.31
2018-12-01T10:48:07.770Z,101080.95
2018-12-01T10:50:35.932Z,101070.60
2018-12-01T10:53:04.086Z,101068.28
2018-12-01T10:55:33.199Z,101068.11
2018-12-01T10:58:18.340Z,101063.06
2018-12-01T11:00:52.949Z,101057.87
2018-12-01T11:03:27.063Z,101059.02
2018-12-01T11:05:56.030Z,101058.61
2018-12-01T11:08:24.200Z,101054.30
2018-12-01T11:10:55.184Z,101045.78
2018-12-01T11:13:20.645Z,101056.53
2018-12-01T11:15:55.477Z,101050.81
2018-12-01T11:18:23.633Z,101046.95
2018-12-01T11:20:51.852Z,101048.67
2018-12-01T11:23:20.053Z,101047.17
2018-12-01T11:25:48.256Z,101056.77
2018-12-01T11:28:16.487Z,101058.01
2018-12-01T11:30:44.646Z,101061.56
2018-12-01T11:33:12.913Z,101066.94
2018-12-01T11:35:41.358Z,101057.89
2018-12-01T11:38:09.915Z,101056.03
2018-12-01T11:40:38.273Z,101054.75
2018-12-01T11:43:07.947Z,101054.60
2018-12-01T11:45:36.133Z,101052.53
2018-12-01T11:48:04.380Z,101049.16
2018-12-01T11:50:32.669Z,101063.61
2018-12-01T11:53:00.855Z,101063.58
2018-12-01T11:55:29.076Z,101063.77
2018-12-01T11:57:57.343Z,101060.67
2018-12-01T12:00:26.465Z,101060.33
2018-12-01T12:02:55.016Z,101072.30
2018-12-01T12:05:23.282Z,101071.89
2018-12-01T12:08:03.063Z,101069.24
2018-12-01T12:10:31.204Z,101076.52
2018-12-01T12:12:59.438Z,101072.81
2018-12-01T12:15:27.805Z,101071.82
2018-12-01T12:17:58.485Z,101069.08
2018-12-01T12:20:26.733Z,101081.17
2018-12-01T12:22:55.097Z,101071.66
2018-12-01T12:25:23.407Z,101077.17
2018-12-01T12:27:51.664Z,101070.61
2018-12-01T12:30:23.415Z,101074.59
2018-12-01T12:32:48.879Z,101076.69
2018-12-01T12:35:17.797Z,101080.14
2018-12-01T12:37:48.939Z,101080.30
2018-12-01T12:40:23.124Z,101082.66
2018-12-01T12:42:52.097Z,101084.58
2018-12-01T12:45:20.265Z,101079.11
2018-12-01T12:47:48.437Z,101074.16
2018-12-01T12:50:17.503Z,101069.73
2018-12-01T12:52:47.839Z,101072.64
2018-12-01T12:55:21.007Z,101073.94
2018-12-01T12:57:49.223Z,101071.43
2018-12-01T13:00:21.543Z,101074.24
2018-12-01T13:02:58.059Z,101073.11
2018-12-01T13:05:29.677Z,101072.41
2018-12-01T13:07:58.017Z,101070.36
2018-12-01T13:10:26.693Z,101073.13
2018-12-01T13:12:54.857Z,101067.14
2018-12-01T13:15:23.146Z,101070.96
2018-12-01T13:17:51.431Z,101073.78
2018-12-01T13:20:20.622Z,101080.14
2018-12-01T13:22:50.160Z,101082.34
2018-12-01T13:25:18.423Z,101078.30
2018-12-01T13:27:48.377Z,101071.34
2018-12-01T13:30:18.051Z,101083.45
2018-12-01T13:32:46.274Z,101071.59
2018-12-01T13:35:14.463Z,101072.64
2018-12-01T13:37:42.682Z,101074.58
2018-12-01T13:40:13.716Z,101070.36
2018-12-01T13:42:42.410Z,101061.09
2018-12-01T13:45:17.670Z,101064.48
2018-12-01T13:47:46.936Z,101061.48
2018-12-01T13:50:16.827Z,101054.39
2018-12-01T13:52:48.378Z,101055.85
2018-12-01T13:55:16.610Z,101045.33
2018-12-01T13:57:44.827Z,101049.71
2018-12-01T14:00:15.229Z,101050.05
2018-12-01T14:02:43.500Z,101047.93
2018-12-01T14:05:12.202Z,101042.51
2018-12-01T14:07:40.420Z,101035.84
2018-12-01T14:10:14.550Z,101032.11
2018-12-01T14:12:43.162Z,101033.56
2018-12-01T14:15:12.870Z,101027.31
2018-12-01T14:17:41.242Z,101027.72
2018-12-01T14:20:10.753Z,101031.66
2018-12-01T14:22:39.078Z,101037.23
2018-12-01T14:25:08.798Z,101038.17
2018-12-01T14:27:37.311Z,101046.27
2018-12-01T14:30:09.972Z,101052.72
2018-12-01T14:32:38.202Z,101060.16
2018-12-01T14:35:10.322Z,101062.64
2018-12-01T14:37:38.538Z,101068.23
2018-12-01T14:40:09.912Z,101063.42
2018-12-01T14:42:38.158Z,101066.20
2018-12-01T14:45:09.662Z,101064.55
2018-12-01T14:47:37.908Z,101069.15
2018-12-01T14:50:08.450Z,101063.26
2018-12-01T14:52:36.619Z,101057.95
2018-12-01T14:55:06.271Z,101061.05
2018-12-01T14:57:34.456Z,101057.07
2018-12-01T15:00:02.745Z,101053.70
2018-12-01T15:02:31.091Z,101061.82
2018-12-01T15:04:59.412Z,101071.09
2018-12-01T15:07:27.660Z,101066.08
2018-12-01T15:09:55.830Z,101081.86
2018-12-01T15:12:24.032Z,101081.19
2018-12-01T15:14:52.241Z,101085.30
2018-12-01T15:17:20.502Z,101080.08
2018-12-01T15:19:48.788Z,101081.23
2018-12-01T15:22:17.035Z,101084.45
2018-12-01T15:24:45.231Z,101088.70
2018-12-01T15:27:13.445Z,101084.02
2018-12-01T15:29:41.639Z,101079.84
2018-12-01T15:32:09.815Z,101080.02
2018-12-01T15:34:37.965Z,101082.45
2018-12-01T15:37:06.291Z,101078.20
2018-12-01T15:39:34.650Z,101072.99
2018-12-01T15:42:02.841Z,101067.90
2018-12-01T15:44:31.609Z,101065.84
2018-12-01T15:47:00.055Z,101071.88
2018-12-01T15:49:28.286Z,101064.58
2018-12-01T15:51:56.541Z,101062.81
2018-12-01T15:54:24.743Z,101065.83
2018-12-01T15:56:52.938Z,101063.59
2018-12-01T15:59:21.085Z,101065.56
2018-12-01T16:01:49.323Z,101065.50
2018-12-01T16:04:17.675Z,101065.53
2018-12-01T16:06:45.882Z,101065.22
2018-12-01T16:09:14.055Z,101060.24
2018-12-01T16:11:42.223Z,101061.66
2018-12-01T16:14:10.891Z,101054.37
2018-12-01T16:16:39.060Z,101051.36
2018-12-01T16:19:07.279Z,101052.06
2018-12-01T16:21:35.435Z,101050.53
2018-12-01T16:24:03.641Z,101054.25
2018-12-01T16:26:32.018Z,101050.47
2018-12-01T16:29:00.199Z,101054.47
2018-12-01T16:31:28.413Z,101049.14
2018-12-01T16:33:56.715Z,101050.30
2018-12-01T16:36:25.031Z,101052.88
2018-12-01T16:38:53.433Z,101045.08
2018-12-01T16:41:25.565Z,101042.09
2018-12-01T16:43:53.783Z,101042.12
2018-12-01T16:46:22.059Z,101046.09
2018-12-01T16:48:50.280Z,101045.55
2018-12-01T16:51:18.489Z,101051.45
2018-12-01T16:53:46.746Z,101044.36
2018-12-01T16:56:14.951Z,101037.24
2018-12-01T16:58:43.224Z,101042.80
2018-12-01T17:01:11.413Z,101044.23
2018-12-01T17:03:39.661Z,101040.08
2018-12-01T17:06:11.411Z,101031.52
2018-12-01T17:08:39.527Z,101030.00
2018-12-01T17:11:08.673Z,101031.73
2018-12-01T17:13:37.031Z,101029.02
2018-12-01T17:16:05.397Z,101026.09
2018-12-01T17:18:33.587Z,101027.13
2018-12-01T17:21:01.829Z,101025.41
2018-12-01T17:23:30.100Z,101026.59
2018-12-01T17:25:58.279Z,101025.09
2018-12-01T17:28:26.496Z,101030.42
2018-12-01T17:30:54.675Z,101028.38
2018-12-01T17:33:22.818Z,101020.98
2018-12-01T17:35:51.009Z,101010.52
2018-12-01T17:38:20.403Z,101013.69
2018-12-01T17:40:55.741Z,101007.55
2018-12-01T17:43:28.211Z,101003.13
2018-12-01T17:45:56.513Z,101001.28
2018-12-01T17:48:24.726Z,101004.10
2018-12-01T17:50:52.915Z,100998.30
2018-12-01T17:53:21.153Z,100990.23
2018-12-01T17:55:49.576Z,100995.22
2018-12-01T17:58:17.741Z,100989.93
2018-12-01T18:00:45.893Z,100989.66
2018-12-01T18:03:14.183Z,100983.07
2018-12-01T18:05:45.185Z,100978.24
2018-12-01T18:08:16.174Z,100979.53
2018-12-01T18:10:44.911Z,100978.44
2018-12-01T18:13:13.084Z,100976.92
2018-12-01T18:15:41.524Z,100967.80
2018-12-01T18:18:09.686Z,100967.52
2018-12-01T18:20:37.933Z,100969.22
2018-12-01T18:23:07.565Z,100961.15
2018-12-01T18:25:39.458Z,100959.82
2018-12-01T18:28:08.657Z,100952.35
2018-12-01T18:30:38.285Z,100958.63
2018-12-01T18:33:12.097Z,100954.14
2018-12-01T18:35:40.669Z,100951.58
2018-12-01T18:38:09.905Z,100947.34
2018-12-01T18:40:38.201Z,100946.84
2018-12-01T18:43:07.271Z,100944.86
2018-12-01T18:45:35.484Z,100947.08
2018-12-01T18:48:03.659Z,100951.00
2018-12-01T18:50:31.989Z,100941.00
2018-12-01T18:53:01.660Z,100937.95
2018-12-01T18:55:31.415Z,100930.92
2018-12-01T18:58:07.304Z,100926.81
2018-12-01T19:00:40.765Z,100930.52
2018-12-01T19:03:08.996Z,100927.24
2018-12-01T19:05:37.228Z,100924.56
2018-12-01T19:08:05.498Z,100915.56
2018-12-01T19:10:33.768Z,100915.10
2018-12-01T19:13:01.955Z,100916.39
2018-12-01T19:15:30.167Z,100915.10
2018-12-01T19:17:58.355Z,100920.14
2018-12-01T19:20:26.640Z,100917.22
2018-12-01T19:22:54.810Z,100914.52
2018-12-01T19:25:23.673Z,100915.63
2018-12-01T19:27:53.021Z,100918.48
2018-12-01T19:30:21.969Z,100917.97
2018-12-01T19:32:57.353Z,100917.94
2018-12-01T19:35:25.553Z,100923.48
2018-12-01T19:37:54.610Z,100922.05
2018-12-01T19:40:28.608Z,100924.37
2018-12-01T19:42:53.700Z,100920.95
2018-12-01T19:45:21.935Z,100910.33
2018-12-01T19:47:50.259Z,100909.39
2018-12-01T19:50:21.819Z,100912.27
2018-12-01T19:52:49.988Z,100908.70
2018-12-01T19:55:19.294Z,100912.55
2018-12-01T19:57:47.571Z,100916.63
2018-12-01T20:00:17.138Z,100911.77
2018-12-01T20:02:45.448Z,100907.63
2018-12-01T20:05:15.017Z,100906.13
2018-12-01T20:07:43.410Z,100900.70
2018-12-01T20:10:21.884Z,100900.23
2018-12-01T20:12:53.732Z,100901.22
2018-12-01T20:15:58.343Z,100893.91
2018-12-01T20:18:27.743Z,100890.05
2018-12-01T20:20:56.068Z,100898.47
2018-12-01T20:25:56.242Z,100914.20
2018-12-01T20:28:24.472Z,100907.66
2018-12-01T20:30:53.193Z,100921.80
2018-12-01T20:33:21.431Z,100904.78
2018-12-01T20:35:54.571Z,100916.66
2018-12-01T20:38:43.532Z,100906.90
2018-12-01T20:41:11.773Z,100910.06
2018-12-01T20:43:40.003Z,100911.06
2018-12-01T20:46:08.223Z,100914.93
2018-12-01T20:48:36.480Z,100918.02
2018-12-01T20:51:05.203Z,100910.48
2018-12-01T20:53:33.430Z,100907.73
2018-12-01T20:56:01.881Z,100903.88
2018-12-01T20:58:32.248Z,100900.61
2018-12-01T21:01:00.425Z,100899.22
2018-12-01T21:03:28.633Z,100898.45
2018-12-01T21:05:56.896Z,100899.52
2018-12-01T21:08:27.840Z,100891.52
2018-12-01T21:10:58.338Z,100887.37
2018-12-01T21:13:26.559Z,100882.81
2018-12-01T21:15:54.818Z,100872.23
2018-12-01T21:18:23.134Z,100872.24
2018-12-01T21:20:51.400Z,100865.34
2018-12-01T21:23:19.781Z,100863.64
2018-12-01T21:25:48.015Z,100857.56
2018-12-01T21:28:16.243Z,100862.53
2018-12-01T21:30:45.591Z,100866.69
2018-12-01T21:33:16.306Z,100867.22
2018-12-01T21:35:44.551Z,100861.27
2018-12-01T21:38:14.815Z,100860.95
2018-12-01T21:40:43.583Z,100860.20
2018-12-01T21:43:12.473Z,100848.46
2018-12-01T21:45:40.657Z,100849.41
2018-12-01T21:48:10.639Z,100841.53
2018-12-01T21:50:39.733Z,100835.33
2018-12-01T21:53:10.298Z,100835.22
2018-12-01T21:55:38.560Z,100828.69
2018-12-01T21:58:07.342Z,100832.36
2018-12-01T22:00:35.572Z,100829.02
2018-12-01T22:03:06.573Z,100822.31
2018-12-01T22:05:38.080Z,100821.91
2018-12-01T22:08:07.725Z,100812.33
2018-12-01T22:10:35.898Z,100812.92
2018-12-01T22:13:04.114Z,100804.33
2018-12-01T22:15:32.285Z,100808.88
2018-12-01T22:18:00.455Z,100802.66
2018-12-01T22:20:28.622Z,100794.06
2018-12-01T22:22:56.860Z,100793.55
2018-12-01T22:25:24.987Z,100791.86
2018-12-01T22:27:53.186Z,100785.66
2018-12-01T22:30:21.823Z,100787.02
2018-12-01T22:32:55.400Z,100784.73
2018-12-01T22:35:24.710Z,100783.97
2018-12-01T22:37:53.606Z,100778.72
2018-12-01T22:40:23.127Z,100777.08
2018-12-01T22:42:53.904Z,100775.28
2018-12-01T22:45:22.047Z,100772.22
2018-12-01T22:47:50.282Z,100766.88
2018-12-01T22:50:19.603Z,100763.89
2018-12-01T22:52:48.036Z,100764.42
2018-12-01T22:55:17.637Z,100760.86
2018-12-01T22:57:51.392Z,100755.30
2018-12-01T23:00:35.709Z,100754.60
2018-12-01T23:03:04.214Z,100756.81
2018-12-01T23:05:32.386Z,100755.60
2018-12-01T23:08:00.547Z,100752.53
2018-12-01T23:10:28.743Z,100755.28
2018-12-01T23:12:56.964Z,100754.77
2018-12-01T23:15:25.228Z,100748.45
2018-12-01T23:17:53.482Z,100740.45
2018-12-01T23:20:23.017Z,100728.14
2018-12-01T23:22:51.666Z,100733.90
2018-12-01T23:25:19.875Z,100724.16
2018-12-01T23:27:48.029Z,100714.75
2018-12-01T23:30:25.134Z,100708.28
2018-12-01T23:32:59.477Z,100704.22
2018-12-01T23:35:27.759Z,100700.01
2018-12-01T23:37:55.938Z,100693.48
2018-12-01T23:40:24.083Z,100694.42
2018-12-01T23:42:52.374Z,100703.62
2018-12-01T23:45:21.028Z,100692.94
2018-12-01T23:47:49.504Z,100696.86
2018-12-01T23:50:18.813Z,100696.48
2018-12-01T23:52:48.218Z,100690.80
2018-12-01T23:55:16.449Z,100692.59
2018-12-01T23:57:44.617Z,100681.77
